首页
METAR-TAF:

METAR-TAF

机场 :

皮阿尔科国际机场

西班牙港, 特立尼达岛, 千里達及托巴哥

纬度: 10-37N, 经度: 061-21W, 海拔: 12米

当前天气观测

该预报发布于20分钟前的20:00 UTC
风速7节,风向东转东南
温度 26°C
湿度 94%
气压 1009 hPa
能见度10公里或以上
少量云层高于1200英尺, 积雨云.
散云层高于1400英尺
附近有阵雨

METAR: TTPP 142000Z 12007KT 9999 VCSH FEW012CB SCT014 26/25 Q1009 TEMPO SHRA RMK CB- S VCSH- S/SE/E/NE

时间: 16:20 (20:20 UTC)

预报

该预报发布于4小时和20分钟前的16:00 UTC
预报有效从14日的 18点(UTC)到 15日的 18点(UTC)
风速10节,风向东转东南
能見度: 9000
少量云层高于1400英尺
短暂存在
从 14日的 18点(UTC)到 15日的 05点(UTC)
能見度: 3000
少量云层高于1000英尺, 积雨云.
多云层高于1500英尺
阵雨
几率 30% :
短暂存在
从 14日的 20点(UTC)到 15日的 02点(UTC)
风速10节,风向东转东南,有时为20节阵风
能見度: 2000
散云层高于1000英尺, 积雨云.
雷暴, 雨
成为
从 15日的 02点(UTC)到 15日的 06点(UTC)
风速节,风向
散云层高于1500英尺
散云层高于3800英尺
成为
从 15日的 13点(UTC)到 15日的 15点(UTC)
风速10节,风向东南
能见度10公里或以上
散云层高于1800英尺
几率 30% :
短暂存在
从 15日的 15点(UTC)到 15日的 18点(UTC)
能見度: 5000
少量云层高于1000英尺, 积雨云.
多云层高于1500英尺
阵雨

TAF: TTPP 141600Z 1418/1518 12010KT 9000 FEW014 TEMPO 1418/1505 3000 SHRA FEW010CB BKN015 PROB30 TEMPO 1420/1502 12010G20KT 2000 TSRA SCT010CB BECMG 1502/1506 00000KT SCT015 SCT038 BECMG 1513/1515 9999 13010KT SCT018 PROB30 TEMPO 1515/1518 5000 SHRA FEW010CB BKN015

超过4000个机场的气象观测和天气预报(METAR&TAF报告)。

可查询的气象台以黄色和红色小点在地图上表示。

将鼠标移到小点上方,可查看气象台名称。

然后点击查看天气观测和预报。

如需切换地图:点击带黑十字的绿色按钮放大地图;点击带横线的绿色按钮缩小地图;或者点击绿色箭头查看邻近地区的地图。


METAR-TAF: